createdAt,value
2023-04-08T00:00:48.809Z,16.43
2023-04-08T00:03:16.479Z,16.30
2023-04-08T00:05:43.508Z,16.90
2023-04-08T00:08:10.397Z,17.83
2023-04-08T00:10:37.312Z,18.30
2023-04-08T00:13:04.188Z,15.37
2023-04-08T00:15:31.113Z,16.10
2023-04-08T00:17:58.325Z,16.23
2023-04-08T00:20:25.445Z,16.20
2023-04-08T00:22:52.554Z,14.37
2023-04-08T00:25:19.507Z,16.77
2023-04-08T00:27:46.442Z,14.57
2023-04-08T00:30:13.345Z,15.70
2023-04-08T00:32:40.239Z,14.03
2023-04-08T00:35:07.709Z,11.80
2023-04-08T00:37:35.119Z,13.40
2023-04-08T00:40:02.112Z,13.30
2023-04-08T00:42:30.813Z,14.30
2023-04-08T00:44:58.245Z,14.50
2023-04-08T00:47:25.825Z,12.20
2023-04-08T00:49:53.255Z,15.13
2023-04-08T00:52:20.264Z,14.40
2023-04-08T00:54:47.183Z,15.90
2023-04-08T00:57:14.261Z,14.57
2023-04-08T00:59:42.567Z,16.37
2023-04-08T01:02:32.003Z,15.20
2023-04-08T01:05:07.528Z,14.70
2023-04-08T01:07:44.790Z,15.00
2023-04-08T01:10:28.010Z,13.53
2023-04-08T01:12:58.400Z,15.47
2023-04-08T01:15:28.145Z,14.40
2023-04-08T01:17:57.453Z,14.37
2023-04-08T01:20:26.367Z,15.00
2023-04-08T01:23:52.363Z,15.40
2023-04-08T01:26:25.979Z,14.27
2023-04-08T01:29:01.074Z,15.50
2023-04-08T01:31:28.515Z,14.67
2023-04-08T01:34:00.730Z,14.63
2023-04-08T01:36:29.710Z,15.00
2023-04-08T01:38:56.908Z,15.33
2023-04-08T01:41:24.179Z,13.93
2023-04-08T01:43:53.137Z,14.50
2023-04-08T01:46:21.662Z,15.00
2023-04-08T01:48:50.051Z,15.63
2023-04-08T01:51:17.598Z,15.20
2023-04-08T01:53:44.487Z,15.10
2023-04-08T01:56:14.154Z,17.00
2023-04-08T01:58:52.730Z,17.03
2023-04-08T02:01:23.793Z,14.97
2023-04-08T02:03:55.575Z,15.17
2023-04-08T02:06:25.778Z,16.00
2023-04-08T02:08:53.590Z,15.00
2023-04-08T02:11:21.856Z,15.33
2023-04-08T02:13:49.225Z,16.10
2023-04-08T02:16:31.337Z,15.27
2023-04-08T02:19:12.103Z,15.10
2023-04-08T02:21:46.989Z,15.47
2023-04-08T02:24:15.509Z,17.33
2023-04-08T02:26:44.334Z,16.20
2023-04-08T02:29:15.753Z,15.10
2023-04-08T02:31:44.174Z,15.73
2023-04-08T02:34:12.038Z,16.13
2023-04-08T02:36:40.995Z,16.57
2023-04-08T02:39:07.921Z,15.70
2023-04-08T02:41:34.985Z,16.60
2023-04-08T02:44:01.892Z,16.03
2023-04-08T02:46:30.244Z,17.17
2023-04-08T02:48:57.138Z,16.37
2023-04-08T02:51:24.067Z,14.83
2023-04-08T02:53:51.107Z,16.87
2023-04-08T02:56:18.073Z,16.23
2023-04-08T02:58:44.941Z,14.13
2023-04-08T03:01:11.965Z,15.30
2023-04-08T03:03:39.384Z,17.80
2023-04-08T03:06:06.398Z,15.73
2023-04-08T03:08:33.732Z,17.00
2023-04-08T03:11:00.817Z,18.10
2023-04-08T03:13:29.633Z,17.47
2023-04-08T03:15:56.542Z,17.93
2023-04-08T03:18:24.444Z,16.03
2023-04-08T03:20:51.332Z,16.30
2023-04-08T03:23:18.205Z,16.60
2023-04-08T03:25:45.325Z,17.07
2023-04-08T03:28:12.202Z,16.10
2023-04-08T03:30:39.222Z,18.33
2023-04-08T03:33:08.129Z,16.33
2023-04-08T03:35:35.561Z,16.57
2023-04-08T03:38:02.483Z,16.67
2023-04-08T03:40:29.373Z,16.93
2023-04-08T03:42:56.239Z,18.50
2023-04-08T03:45:23.164Z,16.53
2023-04-08T03:47:50.104Z,17.77
2023-04-08T03:50:17.037Z,17.20
2023-04-08T03:52:43.910Z,18.50
2023-04-08T03:55:10.815Z,18.13
2023-04-08T03:57:37.750Z,18.40
2023-04-08T04:00:05.266Z,19.40
2023-04-08T04:02:39.288Z,16.70
2023-04-08T04:05:06.667Z,19.10
2023-04-08T04:07:33.558Z,18.03
2023-04-08T04:10:00.555Z,18.00
2023-04-08T04:12:27.457Z,17.87
2023-04-08T04:14:54.386Z,18.10
2023-04-08T04:17:21.248Z,19.10
2023-04-08T04:19:48.122Z,16.93
2023-04-08T04:22:15.060Z,18.90
2023-04-08T04:24:41.955Z,19.43
2023-04-08T04:27:08.831Z,20.23
2023-04-08T04:29:35.823Z,18.83
2023-04-08T04:32:02.733Z,20.50
2023-04-08T04:34:29.643Z,18.50
2023-04-08T04:36:56.678Z,20.37
2023-04-08T04:39:23.624Z,19.40
2023-04-08T04:41:50.830Z,19.83
2023-04-08T04:44:17.737Z,18.70
2023-04-08T04:46:44.705Z,19.20
2023-04-08T04:49:11.671Z,17.23
2023-04-08T04:51:38.571Z,21.00
2023-04-08T04:54:05.488Z,18.27
2023-04-08T04:56:32.369Z,18.77
2023-04-08T04:58:59.250Z,19.20
2023-04-08T05:01:26.445Z,17.60
2023-04-08T05:03:53.398Z,18.67
2023-04-08T05:06:20.336Z,18.77
2023-04-08T05:08:47.297Z,20.43
2023-04-08T05:11:14.245Z,19.77
2023-04-08T05:13:41.659Z,17.33
2023-04-08T05:16:08.660Z,19.43
2023-04-08T05:18:35.565Z,19.87
2023-04-08T05:21:03.077Z,18.70
2023-04-08T05:23:29.981Z,21.60
2023-04-08T05:25:57.068Z,19.97
2023-04-08T05:28:23.954Z,20.23
2023-04-08T05:30:51.571Z,19.60
2023-04-08T05:33:19.000Z,20.30
2023-04-08T05:35:46.632Z,19.43
2023-04-08T05:38:13.560Z,19.17
2023-04-08T05:40:40.497Z,18.63
2023-04-08T05:43:07.400Z,19.63
2023-04-08T05:45:34.290Z,20.70
2023-04-08T05:48:01.204Z,16.57
2023-04-08T05:50:28.126Z,17.30
2023-04-08T05:52:55.022Z,19.37
2023-04-08T05:55:22.140Z,18.73
2023-04-08T05:57:49.009Z,18.67
2023-04-08T06:00:16.939Z,18.43
2023-04-08T06:02:44.065Z,18.57
2023-04-08T06:05:11.172Z,20.40
2023-04-08T06:07:38.048Z,19.63
2023-04-08T06:10:07.108Z,18.70
2023-04-08T06:12:37.430Z,19.13
2023-04-08T06:15:05.944Z,17.70
2023-04-08T06:17:32.852Z,18.43
2023-04-08T06:20:01.886Z,21.37
2023-04-08T06:22:29.482Z,19.80
2023-04-08T06:24:56.566Z,18.30
2023-04-08T06:27:23.480Z,19.03
2023-04-08T06:29:50.875Z,19.17
2023-04-08T06:32:17.859Z,19.87
2023-04-08T06:34:46.039Z,19.30
2023-04-08T06:37:13.000Z,18.23
2023-04-08T06:39:39.925Z,19.40
2023-04-08T06:42:06.838Z,18.93
2023-04-08T06:44:53.335Z,17.70
2023-04-08T06:47:20.272Z,18.57
2023-04-08T06:49:47.437Z,17.57
2023-04-08T06:52:15.219Z,19.00
2023-04-08T06:54:42.273Z,21.33
2023-04-08T06:57:09.482Z,21.03
2023-04-08T06:59:36.439Z,17.87
2023-04-08T07:02:03.647Z,19.00
2023-04-08T07:04:30.805Z,20.20
2023-04-08T07:06:57.873Z,19.17
2023-04-08T07:09:24.776Z,19.03
2023-04-08T07:11:51.692Z,18.17
2023-04-08T07:14:19.627Z,17.93
2023-04-08T07:16:46.630Z,19.07
2023-04-08T07:19:13.593Z,19.40
2023-04-08T07:21:40.482Z,19.10
2023-04-08T07:24:07.500Z,19.30
2023-04-08T07:26:34.373Z,19.40
2023-04-08T07:29:01.273Z,20.33
2023-04-08T07:31:28.257Z,19.13
2023-04-08T07:33:55.314Z,19.77
2023-04-08T07:36:22.268Z,18.50
2023-04-08T07:38:49.360Z,20.10
2023-04-08T07:41:16.479Z,17.73
2023-04-08T07:43:43.464Z,19.13
2023-04-08T07:46:10.485Z,19.73
2023-04-08T07:48:37.439Z,18.50
2023-04-08T07:51:10.999Z,18.97
2023-04-08T07:53:40.372Z,17.60
2023-04-08T07:56:15.670Z,19.30
2023-04-08T07:58:43.071Z,19.43
2023-04-08T08:01:22.096Z,19.17
2023-04-08T08:03:51.270Z,19.93
2023-04-08T08:06:18.875Z,19.20
2023-04-08T08:08:45.861Z,18.80
2023-04-08T08:11:13.050Z,19.37
2023-04-08T08:13:39.976Z,20.17
2023-04-08T08:16:09.193Z,18.33
2023-04-08T08:18:36.901Z,18.17
2023-04-08T08:21:04.111Z,19.07
2023-04-08T08:23:31.081Z,19.77
2023-04-08T08:26:03.062Z,19.10
2023-04-08T08:28:29.965Z,19.03
2023-04-08T08:30:57.276Z,18.33
2023-04-08T08:33:25.513Z,21.20
2023-04-08T08:35:52.612Z,19.17
2023-04-08T08:38:19.535Z,17.40
2023-04-08T08:40:46.529Z,19.80
2023-04-08T08:43:14.491Z,19.83
2023-04-08T08:45:42.247Z,18.93
2023-04-08T08:48:09.573Z,21.27
2023-04-08T08:50:36.513Z,21.43
2023-04-08T08:53:03.659Z,19.87
2023-04-08T08:55:53.062Z,20.30
2023-04-08T08:58:20.744Z,21.10
2023-04-08T09:00:47.666Z,19.93
2023-04-08T09:03:16.733Z,20.23
2023-04-08T09:06:01.275Z,19.57
2023-04-08T09:08:28.064Z,20.90
2023-04-08T09:10:56.333Z,19.13
2023-04-08T09:13:24.783Z,21.47
2023-04-08T09:16:04.009Z,21.67
2023-04-08T09:18:32.394Z,19.50
2023-04-08T09:21:04.160Z,20.50
2023-04-08T09:23:49.869Z,24.27
2023-04-08T09:26:22.209Z,20.30
2023-04-08T09:29:25.388Z,21.00
2023-04-08T09:32:00.468Z,20.30
2023-04-08T09:34:29.694Z,17.57
2023-04-08T09:36:56.894Z,17.70
2023-04-08T09:39:24.163Z,19.87
2023-04-08T09:41:52.787Z,18.50
2023-04-08T09:44:24.707Z,17.27
2023-04-08T09:46:51.688Z,16.27
2023-04-08T09:49:46.940Z,16.30
2023-04-08T09:52:21.853Z,16.97
2023-04-08T09:55:00.621Z,16.00
2023-04-08T09:57:51.121Z,19.07
2023-04-08T10:00:19.224Z,17.30
2023-04-08T10:03:20.439Z,17.13
2023-04-08T10:05:48.819Z,17.17
2023-04-08T10:08:16.395Z,17.60
2023-04-08T10:10:44.074Z,17.27
2023-04-08T10:13:11.637Z,15.93
2023-04-08T10:15:40.871Z,15.33
2023-04-08T10:18:31.255Z,17.07
2023-04-08T10:20:58.130Z,15.10
2023-04-08T10:23:56.959Z,18.00
2023-04-08T10:26:36.746Z,17.90
2023-04-08T10:29:30.855Z,17.30
2023-04-08T10:31:57.929Z,16.30
2023-04-08T10:34:27.412Z,17.30
2023-04-08T10:36:56.855Z,16.87
2023-04-08T10:39:25.965Z,16.30
2023-04-08T10:41:52.939Z,16.03
2023-04-08T10:44:26.190Z,18.33
2023-04-08T10:46:54.209Z,14.20
2023-04-08T10:49:22.108Z,15.90
2023-04-08T10:51:49.351Z,13.30
2023-04-08T10:54:18.436Z,15.23
2023-04-08T10:56:53.562Z,12.77
2023-04-08T10:59:32.771Z,12.60
2023-04-08T11:02:01.239Z,13.93
2023-04-08T11:04:28.739Z,13.03
2023-04-08T11:06:55.729Z,12.60
2023-04-08T11:09:22.620Z,13.83
2023-04-08T11:11:49.510Z,13.87
2023-04-08T11:14:19.679Z,13.50
2023-04-08T11:16:46.592Z,11.80
2023-04-08T11:19:14.294Z,11.67
2023-04-08T11:21:41.510Z,12.77
2023-04-08T11:24:12.434Z,13.27
2023-04-08T11:26:40.518Z,12.30
2023-04-08T11:29:14.187Z,12.07
2023-04-08T11:31:42.893Z,11.77
2023-04-08T11:34:09.966Z,11.60
2023-04-08T11:36:36.966Z,11.20
2023-04-08T11:39:09.088Z,12.50
2023-04-08T11:41:43.270Z,11.27
2023-04-08T11:44:10.370Z,11.93
2023-04-08T11:46:37.816Z,13.00
2023-04-08T11:49:09.979Z,13.47
2023-04-08T11:51:56.469Z,13.00
2023-04-08T11:54:31.958Z,13.27
2023-04-08T11:56:59.915Z,13.97
2023-04-08T11:59:28.901Z,13.90
2023-04-08T12:01:56.383Z,11.80
2023-04-08T12:04:23.506Z,14.43
2023-04-08T12:06:50.712Z,13.03
2023-04-08T12:09:17.612Z,14.73
2023-04-08T12:11:44.552Z,16.03
2023-04-08T12:14:11.432Z,14.07
2023-04-08T12:16:38.496Z,14.40
2023-04-08T12:19:05.426Z,16.07
2023-04-08T12:21:33.877Z,15.60
2023-04-08T12:24:01.677Z,15.20
2023-04-08T12:26:28.605Z,15.70
2023-04-08T12:28:55.523Z,14.90
2023-04-08T12:31:23.119Z,17.53
2023-04-08T12:33:50.470Z,16.70
2023-04-08T12:36:17.630Z,16.80
2023-04-08T12:38:44.615Z,17.00
2023-04-08T12:41:11.500Z,17.00
2023-04-08T12:43:39.126Z,16.60
2023-04-08T12:46:06.391Z,17.33
2023-04-08T12:48:33.296Z,17.20
2023-04-08T12:51:00.252Z,16.57
2023-04-08T12:53:27.145Z,18.17
2023-04-08T12:55:57.147Z,16.77
2023-04-08T12:58:25.612Z,17.47
2023-04-08T13:00:52.527Z,17.40
2023-04-08T13:03:19.518Z,20.00
2023-04-08T13:05:46.853Z,19.90
2023-04-08T13:08:13.745Z,21.40
2023-04-08T13:10:42.511Z,20.97
2023-04-08T13:13:09.474Z,19.20
2023-04-08T13:15:36.920Z,19.13
2023-04-08T13:18:04.706Z,18.03
2023-04-08T13:20:31.645Z,18.57
2023-04-08T13:22:58.533Z,17.33
2023-04-08T13:25:25.563Z,18.93
2023-04-08T13:27:52.604Z,18.17
2023-04-08T13:30:19.564Z,17.80
2023-04-08T13:32:46.532Z,18.97
2023-04-08T13:35:13.462Z,22.37
2023-04-08T13:37:40.323Z,21.27
2023-04-08T13:40:08.747Z,18.73
2023-04-08T13:42:35.826Z,18.00
2023-04-08T13:45:02.796Z,20.27
2023-04-08T13:47:29.745Z,19.20
2023-04-08T13:49:56.646Z,18.70
2023-04-08T13:52:23.506Z,17.93
2023-04-08T13:54:50.429Z,17.93
2023-04-08T13:57:17.340Z,19.20
2023-04-08T13:59:44.889Z,17.73
2023-04-08T14:02:12.894Z,18.13
2023-04-08T14:04:40.271Z,17.40
2023-04-08T14:07:07.333Z,18.20
2023-04-08T14:09:34.318Z,19.07
2023-04-08T14:12:01.253Z,18.50
2023-04-08T14:14:28.291Z,17.63
2023-04-08T14:16:55.298Z,18.40
2023-04-08T14:19:22.276Z,17.90
2023-04-08T14:21:49.237Z,17.90
2023-04-08T14:24:16.311Z,16.80
2023-04-08T14:26:43.274Z,16.60
2023-04-08T14:29:10.237Z,18.47
2023-04-08T14:31:37.289Z,17.53
2023-04-08T14:34:04.487Z,15.87
2023-04-08T14:36:31.678Z,17.87
2023-04-08T14:38:59.459Z,17.67
2023-04-08T14:41:27.134Z,16.90
2023-04-08T14:43:54.062Z,17.10
2023-04-08T14:46:21.707Z,18.57
2023-04-08T14:48:48.980Z,20.80
2023-04-08T14:51:16.027Z,19.60
2023-04-08T14:53:42.948Z,19.60
2023-04-08T14:56:10.147Z,17.57
2023-04-08T14:58:37.092Z,17.30
2023-04-08T15:01:04.536Z,18.70
2023-04-08T15:03:31.674Z,17.73
2023-04-08T15:05:59.695Z,18.43
2023-04-08T15:08:26.742Z,17.87
2023-04-08T15:10:53.639Z,17.83
2023-04-08T15:13:20.551Z,17.97
2023-04-08T15:15:47.469Z,16.23
2023-04-08T15:18:14.392Z,17.53
2023-04-08T15:20:41.855Z,17.67
2023-04-08T15:23:08.865Z,19.33
2023-04-08T15:25:35.839Z,17.60
2023-04-08T15:28:02.834Z,16.73
2023-04-08T15:30:35.052Z,16.80
2023-04-08T15:33:05.239Z,16.60
2023-04-08T15:35:33.078Z,17.73
2023-04-08T15:38:00.794Z,17.43
2023-04-08T15:40:28.117Z,14.97
2023-04-08T15:42:55.062Z,17.67
2023-04-08T15:45:22.241Z,15.30
2023-04-08T15:47:49.224Z,17.13
2023-04-08T15:50:17.289Z,16.53
2023-04-08T15:52:44.563Z,17.23
2023-04-08T15:55:11.807Z,18.33
2023-04-08T15:57:38.792Z,15.67
2023-04-08T16:00:10.859Z,17.40
2023-04-08T16:02:40.919Z,15.73
2023-04-08T16:05:09.117Z,15.30
2023-04-08T16:07:36.224Z,16.93
2023-04-08T16:10:03.264Z,15.37
2023-04-08T16:12:30.365Z,14.50
2023-04-08T16:14:57.247Z,14.97
2023-04-08T16:17:24.262Z,15.73
2023-04-08T16:19:51.830Z,16.43
2023-04-08T16:22:18.937Z,16.33
2023-04-08T16:24:46.169Z,16.10
2023-04-08T16:27:13.046Z,16.77
2023-04-08T16:29:39.939Z,17.80
2023-04-08T16:32:07.226Z,17.53
2023-04-08T16:34:34.578Z,17.90
2023-04-08T16:37:01.464Z,15.97
2023-04-08T16:39:28.599Z,16.97
2023-04-08T16:41:55.498Z,15.60
2023-04-08T16:44:22.794Z,15.20
2023-04-08T16:46:49.688Z,17.20
2023-04-08T16:49:18.262Z,15.73
2023-04-08T16:51:45.389Z,15.60
2023-04-08T16:54:12.354Z,16.90
2023-04-08T16:56:44.213Z,18.10
2023-04-08T16:59:12.251Z,16.70
2023-04-08T17:01:39.221Z,14.87
2023-04-08T17:04:06.284Z,15.93
2023-04-08T17:06:35.653Z,16.10
2023-04-08T17:09:03.950Z,15.30
2023-04-08T17:11:31.132Z,15.60
2023-04-08T17:13:58.110Z,16.60
2023-04-08T17:16:25.375Z,16.30
2023-04-08T17:18:52.437Z,15.90
2023-04-08T17:21:20.159Z,17.90
2023-04-08T17:23:47.126Z,16.77
2023-04-08T17:26:14.006Z,18.13
2023-04-08T17:28:40.892Z,19.50
2023-04-08T17:31:07.799Z,16.97
2023-04-08T17:33:34.696Z,16.30
2023-04-08T17:36:01.646Z,16.10
2023-04-08T17:38:28.926Z,16.20
2023-04-08T17:40:55.817Z,16.63
2023-04-08T17:43:22.699Z,17.10
2023-04-08T17:45:50.505Z,18.30
2023-04-08T17:48:18.686Z,16.33
2023-04-08T17:50:45.582Z,17.13
2023-04-08T17:53:12.444Z,18.70
2023-04-08T17:55:39.374Z,17.10
2023-04-08T17:58:06.291Z,16.57
2023-04-08T18:00:33.178Z,17.37
2023-04-08T18:03:00.230Z,18.33
2023-04-08T18:05:27.305Z,16.90
2023-04-08T18:07:54.187Z,18.63
2023-04-08T18:10:22.996Z,19.23
2023-04-08T18:12:50.819Z,20.80
2023-04-08T18:15:21.990Z,17.40
2023-04-08T18:17:48.940Z,18.00
2023-04-08T18:20:16.046Z,17.13
2023-04-08T18:22:43.065Z,16.10
2023-04-08T18:25:10.157Z,15.60
2023-04-08T18:27:37.053Z,17.00
2023-04-08T18:30:04.293Z,17.73
2023-04-08T18:32:31.200Z,16.47
2023-04-08T18:34:58.090Z,18.20
2023-04-08T18:37:25.077Z,17.13
2023-04-08T18:39:52.000Z,18.87
2023-04-08T18:42:18.951Z,19.37
2023-04-08T18:44:46.065Z,19.93
2023-04-08T18:47:13.118Z,19.00
2023-04-08T18:49:40.071Z,20.70
2023-04-08T18:52:08.296Z,19.93
2023-04-08T18:54:35.787Z,19.40
2023-04-08T18:57:02.957Z,21.13
2023-04-08T18:59:30.324Z,18.47
2023-04-08T19:01:57.637Z,20.00
2023-04-08T19:04:24.836Z,20.57
2023-04-08T19:06:51.769Z,22.80
2023-04-08T19:09:19.210Z,20.30
2023-04-08T19:11:46.146Z,21.70
2023-04-08T19:14:13.079Z,21.57
2023-04-08T19:16:41.651Z,20.70
2023-04-08T19:19:08.991Z,21.07
2023-04-08T19:21:37.698Z,19.90
2023-04-08T19:24:06.363Z,20.20
2023-04-08T19:26:33.787Z,20.03
2023-04-08T19:29:01.224Z,19.90
2023-04-08T19:31:28.271Z,22.83
2023-04-08T19:33:55.333Z,21.97
2023-04-08T19:36:22.227Z,22.87
2023-04-08T19:38:49.127Z,21.60
2023-04-08T19:41:16.046Z,21.50
2023-04-08T19:43:42.931Z,20.90
2023-04-08T19:46:09.830Z,20.70
2023-04-08T19:48:36.738Z,18.87
2023-04-08T19:51:03.738Z,17.20
2023-04-08T19:53:30.775Z,18.40
2023-04-08T19:56:02.019Z,19.33
2023-04-08T19:58:29.012Z,18.97
2023-04-08T20:00:56.946Z,20.07
2023-04-08T20:03:24.078Z,19.30
2023-04-08T20:05:51.110Z,21.30
2023-04-08T20:08:18.012Z,20.90
2023-04-08T20:10:45.004Z,21.47
2023-04-08T20:13:11.937Z,22.67
2023-04-08T20:15:38.795Z,22.00
2023-04-08T20:18:05.682Z,19.57
2023-04-08T20:20:32.660Z,21.33
2023-04-08T20:22:59.571Z,19.63
2023-04-08T20:25:26.584Z,19.77
2023-04-08T20:27:53.533Z,20.77
2023-04-08T20:30:20.397Z,20.43
2023-04-08T20:32:47.312Z,20.23
2023-04-08T20:35:14.312Z,20.40
2023-04-08T20:37:41.860Z,17.67
2023-04-08T20:40:09.405Z,18.60
2023-04-08T20:42:36.495Z,18.50
2023-04-08T20:45:03.767Z,18.00
2023-04-08T20:47:30.746Z,17.00
2023-04-08T20:49:57.667Z,17.30
2023-04-08T20:52:24.533Z,16.37
2023-04-08T20:54:51.423Z,16.73
2023-04-08T20:57:18.342Z,16.80
2023-04-08T20:59:45.300Z,15.87
2023-04-08T21:02:12.245Z,16.23
2023-04-08T21:04:39.808Z,15.17
2023-04-08T21:07:06.676Z,13.73
2023-04-08T21:09:33.595Z,14.93
2023-04-08T21:12:01.237Z,15.00
2023-04-08T21:14:30.961Z,13.30
2023-04-08T21:16:58.422Z,14.50
2023-04-08T21:19:25.339Z,13.70
2023-04-08T21:21:52.219Z,13.07
2023-04-08T21:24:19.103Z,13.97
2023-04-08T21:26:46.004Z,13.83
2023-04-08T21:29:12.934Z,11.73
2023-04-08T21:31:40.952Z,13.23
2023-04-08T21:34:08.371Z,14.07
2023-04-08T21:36:35.269Z,12.90
2023-04-08T21:39:02.319Z,14.00
2023-04-08T21:41:30.577Z,12.60
2023-04-08T21:43:57.746Z,13.30
2023-04-08T21:46:24.713Z,12.47
2023-04-08T21:48:52.092Z,12.07
2023-04-08T21:51:19.271Z,14.50
2023-04-08T21:53:46.283Z,12.17
2023-04-08T21:56:13.990Z,14.30
2023-04-08T21:58:41.098Z,13.50
2023-04-08T22:01:08.144Z,13.30
2023-04-08T22:03:35.233Z,12.20
2023-04-08T22:06:02.184Z,12.07
2023-04-08T22:08:29.086Z,12.47
2023-04-08T22:10:56.013Z,14.00
2023-04-08T22:13:22.919Z,13.43
2023-04-08T22:15:49.782Z,15.67
2023-04-08T22:18:16.666Z,14.17
2023-04-08T22:20:43.542Z,13.90
2023-04-08T22:23:10.435Z,15.20
2023-04-08T22:25:37.300Z,13.87
2023-04-08T22:28:04.204Z,13.50
2023-04-08T22:30:31.176Z,13.20
2023-04-08T22:32:58.239Z,15.07
2023-04-08T22:35:25.167Z,13.90
2023-04-08T22:37:52.166Z,15.40
2023-04-08T22:40:19.060Z,15.50
2023-04-08T22:42:45.929Z,15.83
2023-04-08T22:45:12.796Z,16.00
2023-04-08T22:47:39.726Z,15.00
2023-04-08T22:50:07.179Z,14.93
2023-04-08T22:52:34.064Z,15.73
2023-04-08T22:55:00.974Z,16.07
2023-04-08T22:57:27.947Z,14.80
2023-04-08T22:59:54.818Z,15.50
2023-04-08T23:02:21.865Z,15.33
2023-04-08T23:04:53.430Z,15.90
2023-04-08T23:07:20.383Z,14.13
2023-04-08T23:09:47.256Z,13.90
2023-04-08T23:12:14.230Z,14.20
2023-04-08T23:14:41.097Z,13.67
2023-04-08T23:17:07.983Z,14.03
2023-04-08T23:19:34.850Z,14.50
2023-04-08T23:22:01.737Z,14.70
2023-04-08T23:24:28.618Z,14.53
2023-04-08T23:26:56.240Z,14.90
2023-04-08T23:29:23.203Z,15.10
2023-04-08T23:31:50.198Z,14.77
2023-04-08T23:34:17.061Z,15.30
2023-04-08T23:36:43.964Z,15.07
2023-04-08T23:39:10.945Z,15.50
2023-04-08T23:41:37.821Z,14.50
2023-04-08T23:44:04.747Z,14.13
2023-04-08T23:46:31.706Z,15.17
2023-04-08T23:48:58.591Z,14.47
2023-04-08T23:51:26.566Z,14.17
2023-04-08T23:53:53.444Z,12.70
2023-04-08T23:56:20.641Z,16.40
2023-04-08T23:58:47.511Z,13.97
